Time;durP1;ratioP1;P1;durP2;ratioP2;P2;SDS_P1;SDS_P2;PMS_P1;PMS_P2;Temp;Humidity;BMP_temperature;BMP_pressure;BME280_temperature;BME280_humidity;BME280_pressure;Samples;Min_cycle;Max_cycle;Signal;HPM_P1;HPM_P2
2021/08/04 00:23:13;;;;;;;6.20;5.77;;;;;;;;;;5409059;22;20479;-78
2021/08/04 00:25:40;;;;;;;5.83;5.33;;;;;;;;;;5117092;28;20445;-78
2021/08/04 00:28:07;;;;;;;5.23;4.80;;;;;;;;;;5117172;28;20439;-78
2021/08/04 00:30:34;;;;;;;5.70;5.10;;;;;;;;;;5117898;28;20527;-77
2021/08/04 00:33:02;;;;;;;6.07;5.57;;;;;;;;;;5117269;28;20446;-77
2021/08/04 00:35:29;;;;;;;6.83;6.20;;;;;;;;;;5117419;28;20447;-77
2021/08/04 00:37:56;;;;;;;6.73;6.00;;;;;;;;;;5117108;28;20478;-77
2021/08/04 00:40:25;;;;;;;6.53;5.93;;;;;;;;;;5116957;28;20443;-77
2021/08/04 00:42:52;;;;;;;7.30;5.20;;;;;;;;;;5117250;28;21136;-77
2021/08/04 00:45:19;;;;;;;6.23;5.27;;;;;;;;;;5117185;28;20786;-78
2021/08/04 00:47:47;;;;;;;5.73;5.23;;;;;;;;;;5117240;28;20933;-77
2021/08/04 00:50:14;;;;;;;5.40;4.90;;;;;;;;;;5117120;28;20449;-78
2021/08/04 00:52:41;;;;;;;9.13;5.37;;;;;;;;;;5116734;28;20435;-77
2021/08/04 00:55:08;;;;;;;6.73;5.37;;;;;;;;;;5117572;28;20474;-77
2021/08/04 00:57:37;;;;;;;7.03;5.67;;;;;;;;;;5117224;28;20485;-77
2021/08/04 01:00:05;;;;;;;8.07;5.07;;;;;;;;;;5116930;28;20443;-77
2021/08/04 01:02:36;;;;;;;6.70;6.00;;;;;;;;;;5116844;28;20444;-77
2021/08/04 01:05:06;;;;;;;5.57;5.07;;;;;;;;;;5116831;28;20432;-77
2021/08/04 01:07:34;;;;;;;6.70;6.00;;;;;;;;;;5116671;28;20439;-77
2021/08/04 01:10:03;;;;;;;6.47;5.70;;;;;;;;;;5116557;28;20445;-78
2021/08/04 01:12:34;;;;;;;6.90;5.80;;;;;;;;;;5116598;28;20439;-77
2021/08/04 01:15:04;;;;;;;7.50;5.10;;;;;;;;;;5116792;28;20423;-78
2021/08/04 01:17:31;;;;;;;10.33;5.93;;;;;;;;;;5116475;28;20483;-77
2021/08/04 01:20:04;;;;;;;8.07;5.27;;;;;;;;;;5115460;28;20441;-77
2021/08/04 01:22:34;;;;;;;6.03;5.47;;;;;;;;;;5116844;28;20723;-76
2021/08/04 01:25:04;;;;;;;6.70;6.10;;;;;;;;;;5116012;28;21002;-76
2021/08/04 01:27:32;;;;;;;5.90;5.40;;;;;;;;;;5116839;28;20447;-76
2021/08/04 01:30:00;;;;;;;5.17;4.77;;;;;;;;;;5116331;28;20433;-76
2021/08/04 01:32:28;;;;;;;8.23;5.13;;;;;;;;;;5116186;28;20870;-76
2021/08/04 01:34:56;;;;;;;5.77;4.80;;;;;;;;;;5116303;28;20447;-78
2021/08/04 01:37:25;;;;;;;6.37;5.50;;;;;;;;;;5115800;28;20479;-77
2021/08/04 01:39:52;;;;;;;6.50;5.60;;;;;;;;;;5116137;28;20433;-78
2021/08/04 01:42:20;;;;;;;9.73;5.70;;;;;;;;;;5116098;28;20431;-78
2021/08/04 01:44:49;;;;;;;5.93;5.33;;;;;;;;;;5115703;28;20446;-78
2021/08/04 01:47:17;;;;;;;8.80;6.30;;;;;;;;;;5116336;28;20446;-78
2021/08/04 01:49:44;;;;;;;10.53;6.63;;;;;;;;;;5115911;28;20444;-78
2021/08/04 01:52:12;;;;;;;7.70;6.90;;;;;;;;;;5116079;28;20470;-78
2021/08/04 01:54:40;;;;;;;6.20;5.70;;;;;;;;;;5116091;28;20446;-78
2021/08/04 01:57:07;;;;;;;6.60;6.00;;;;;;;;;;5115368;28;20980;-78
2021/08/04 01:59:35;;;;;;;7.57;6.10;;;;;;;;;;5115370;28;20494;-78
2021/08/04 02:02:19;;;;;;;6.13;5.63;;;;;;;;;;5115848;28;20443;-78
2021/08/04 02:04:47;;;;;;;6.90;5.13;;;;;;;;;;5115967;28;20443;-78
2021/08/04 02:07:20;;;;;;;6.63;6.13;;;;;;;;;;5115246;28;20441;-78
2021/08/04 02:09:50;;;;;;;7.00;5.70;;;;;;;;;;5115620;28;20423;-78
2021/08/04 02:12:17;;;;;;;6.30;5.70;;;;;;;;;;5115163;28;20431;-78
2021/08/04 02:14:46;;;;;;;6.37;5.63;;;;;;;;;;5115135;28;20439;-78
2021/08/04 02:17:18;;;;;;;6.67;5.67;;;;;;;;;;5115348;28;20884;-78
2021/08/04 02:19:52;;;;;;;6.70;5.30;;;;;;;;;;5115082;28;20419;-79
2021/08/04 02:22:21;;;;;;;8.07;5.50;;;;;;;;;;5114999;28;20925;-78
2021/08/04 02:24:51;;;;;;;6.63;6.03;;;;;;;;;;5115276;28;20478;-77
2021/08/04 02:27:19;;;;;;;7.70;7.00;;;;;;;;;;5115243;28;20433;-78
2021/08/04 02:29:47;;;;;;;6.97;5.57;;;;;;;;;;5114834;28;20443;-79
2021/08/04 02:32:14;;;;;;;6.67;6.07;;;;;;;;;;5114947;28;20458;-79
2021/08/04 02:34:41;;;;;;;7.77;5.63;;;;;;;;;;5115083;28;20443;-79
2021/08/04 02:37:10;;;;;;;7.17;6.47;;;;;;;;;;5114628;28;20474;-78
2021/08/04 02:39:37;;;;;;;7.10;6.40;;;;;;;;;;5115462;28;20442;-78
2021/08/04 02:42:05;;;;;;;6.47;5.90;;;;;;;;;;5114949;28;20446;-78
2021/08/04 02:44:32;;;;;;;8.77;6.37;;;;;;;;;;5114888;28;20439;-78
2021/08/04 02:46:59;;;;;;;6.30;5.30;;;;;;;;;;5115059;28;20797;-78
2021/08/04 02:49:27;;;;;;;6.13;5.60;;;;;;;;;;5114816;28;20782;-78
2021/08/04 02:51:54;;;;;;;7.63;6.13;;;;;;;;;;5114763;28;20809;-78
2021/08/04 02:54:22;;;;;;;6.80;6.20;;;;;;;;;;5114814;28;20807;-78
2021/08/04 02:56:50;;;;;;;7.90;6.27;;;;;;;;;;5114275;28;20435;-79
2021/08/04 02:59:17;;;;;;;6.37;5.80;;;;;;;;;;5114316;28;20918;-78
2021/08/04 03:01:44;;;;;;;13.97;6.70;;;;;;;;;;5114712;28;20961;-78
2021/08/04 03:04:11;;;;;;;6.53;5.93;;;;;;;;;;5114254;28;20959;-78
2021/08/04 03:06:39;;;;;;;6.10;5.50;;;;;;;;;;5114200;28;20442;-78
2021/08/04 03:09:06;;;;;;;6.87;5.37;;;;;;;;;;5114415;28;20446;-78
2021/08/04 03:11:34;;;;;;;6.20;5.70;;;;;;;;;;5114566;28;20533;-78
2021/08/04 03:14:01;;;;;;;6.30;5.80;;;;;;;;;;5114056;28;20450;-78
2021/08/04 03:16:29;;;;;;;8.37;6.20;;;;;;;;;;5114350;28;20454;-80
2021/08/04 03:18:56;;;;;;;7.43;6.77;;;;;;;;;;5114184;28;20480;-79
2021/08/04 03:21:23;;;;;;;7.70;6.07;;;;;;;;;;5114290;28;20447;-79
2021/08/04 03:23:50;;;;;;;7.00;5.70;;;;;;;;;;5114318;28;20473;-79
2021/08/04 03:26:17;;;;;;;7.13;6.47;;;;;;;;;;5113896;28;20435;-79
2021/08/04 03:28:46;;;;;;;6.90;6.30;;;;;;;;;;5113886;28;20454;-78
2021/08/04 03:31:13;;;;;;;12.13;6.80;;;;;;;;;;5114271;28;20436;-79
2021/08/04 03:33:40;;;;;;;6.73;5.97;;;;;;;;;;5114128;28;20445;-79
2021/08/04 03:36:08;;;;;;;6.57;5.90;;;;;;;;;;5114159;28;20428;-78
2021/08/04 03:38:35;;;;;;;7.67;6.20;;;;;;;;;;5114167;28;20477;-79
2021/08/04 03:41:02;;;;;;;7.10;6.37;;;;;;;;;;5114078;28;20444;-78
2021/08/04 03:43:29;;;;;;;7.17;6.57;;;;;;;;;;5113935;28;20458;-79
2021/08/04 03:45:58;;;;;;;6.77;5.70;;;;;;;;;;5113702;28;20951;-79
2021/08/04 03:48:25;;;;;;;6.27;5.63;;;;;;;;;;5114223;28;20790;-79
2021/08/04 03:50:52;;;;;;;7.00;6.30;;;;;;;;;;5113575;28;20447;-79
2021/08/04 03:53:19;;;;;;;8.73;6.27;;;;;;;;;;5113842;28;20539;-80
2021/08/04 03:55:46;;;;;;;8.10;6.60;;;;;;;;;;5113549;28;20942;-79
2021/08/04 03:58:13;;;;;;;8.07;7.13;;;;;;;;;;5114700;28;20478;-79
2021/08/04 04:00:42;;;;;;;7.60;6.37;;;;;;;;;;5113846;28;20434;-80
2021/08/04 04:03:11;;;;;;;7.97;7.27;;;;;;;;;;5114197;28;20821;-79
2021/08/04 04:05:38;;;;;;;9.13;6.93;;;;;;;;;;5113976;28;20452;-79
2021/08/04 04:08:06;;;;;;;6.97;6.37;;;;;;;;;;5113771;28;20538;-81
2021/08/04 04:10:33;;;;;;;9.57;7.30;;;;;;;;;;5113456;28;20448;-78
2021/08/04 04:13:00;;;;;;;6.67;6.03;;;;;;;;;;5114005;28;20439;-78
2021/08/04 04:15:27;;;;;;;7.33;6.60;;;;;;;;;;5113524;28;20482;-75
2021/08/04 04:17:55;;;;;;;7.37;6.67;;;;;;;;;;5114254;28;20509;-78
2021/08/04 04:20:23;;;;;;;11.27;7.60;;;;;;;;;;5113377;28;20955;-78
2021/08/04 04:22:50;;;;;;;7.40;6.50;;;;;;;;;;5113055;28;20517;-80
2021/08/04 04:25:18;;;;;;;7.40;6.37;;;;;;;;;;5114007;28;20907;-80
2021/08/04 04:27:46;;;;;;;7.53;6.93;;;;;;;;;;5108866;28;20505;-78
2021/08/04 04:30:13;;;;;;;8.13;6.10;;;;;;;;;;5104506;28;20443;-78
2021/08/04 04:32:41;;;;;;;8.90;6.50;;;;;;;;;;5113566;28;20448;-78
2021/08/04 04:35:08;;;;;;;8.87;6.60;;;;;;;;;;5113496;28;20796;-79
2021/08/04 04:37:37;;;;;;;6.93;6.40;;;;;;;;;;5113137;28;20439;-80
2021/08/04 04:40:05;;;;;;;8.03;7.10;;;;;;;;;;5113713;28;20814;-79
2021/08/04 04:42:32;;;;;;;8.27;6.90;;;;;;;;;;5113125;28;20949;-79
2021/08/04 04:44:59;;;;;;;7.33;6.67;;;;;;;;;;5113408;28;20442;-79
2021/08/04 04:47:26;;;;;;;7.60;6.87;;;;;;;;;;5113429;28;20463;-78
2021/08/04 04:49:53;;;;;;;7.60;6.87;;;;;;;;;;5113134;28;20449;-78
2021/08/04 04:52:20;;;;;;;9.37;8.17;;;;;;;;;;5113036;28;20435;-77
2021/08/04 04:54:49;;;;;;;8.13;7.33;;;;;;;;;;5114318;28;20449;-76
2021/08/04 04:57:16;;;;;;;7.53;6.97;;;;;;;;;;5113389;28;20799;-78
2021/08/04 04:59:43;;;;;;;7.80;7.10;;;;;;;;;;5096477;28;20486;-76
2021/08/04 05:02:10;;;;;;;7.63;6.30;;;;;;;;;;5096498;28;20440;-76
2021/08/04 05:04:38;;;;;;;8.93;7.03;;;;;;;;;;5096204;28;20446;-78
2021/08/04 05:07:05;;;;;;;9.83;7.30;;;;;;;;;;5096699;28;20800;-77
2021/08/04 05:09:32;;;;;;;8.77;7.80;;;;;;;;;;5096173;28;20946;-78
2021/08/04 05:12:01;;;;;;;6.57;6.03;;;;;;;;;;5096308;28;20795;-78
2021/08/04 05:14:28;;;;;;;8.40;7.70;;;;;;;;;;5096280;28;20438;-79
2021/08/04 05:16:55;;;;;;;8.87;7.30;;;;;;;;;;5096748;28;20445;-78
2021/08/04 05:19:22;;;;;;;10.90;9.27;;;;;;;;;;5096104;28;20476;-78
2021/08/04 05:21:50;;;;;;;12.20;9.63;;;;;;;;;;5095735;28;20436;-77
2021/08/04 05:24:17;;;;;;;7.40;6.70;;;;;;;;;;5095640;28;20474;-77
2021/08/04 05:26:44;;;;;;;7.77;7.07;;;;;;;;;;5095903;28;20440;-78
2021/08/04 05:29:12;;;;;;;7.00;6.40;;;;;;;;;;5095746;28;20935;-78
2021/08/04 05:31:40;;;;;;;7.57;6.80;;;;;;;;;;5095910;28;20441;-77
2021/08/04 05:34:07;;;;;;;6.93;6.23;;;;;;;;;;5097962;28;20457;-78
2021/08/04 05:36:34;;;;;;;8.70;7.00;;;;;;;;;;5104339;28;20453;-78
2021/08/04 05:39:01;;;;;;;7.93;5.70;;;;;;;;;;5099709;28;20487;-78
2021/08/04 05:41:28;;;;;;;6.77;6.13;;;;;;;;;;5115794;28;20981;-79
2021/08/04 05:43:56;;;;;;;6.23;5.73;;;;;;;;;;5115597;28;20527;-79
2021/08/04 05:46:24;;;;;;;6.47;5.87;;;;;;;;;;5094934;28;20933;-80
2021/08/04 05:48:51;;;;;;;10.20;5.60;;;;;;;;;;5095951;28;20533;-78
2021/08/04 05:51:19;;;;;;;7.57;6.13;;;;;;;;;;5095666;28;20436;-79
2021/08/04 05:53:46;;;;;;;6.43;5.83;;;;;;;;;;5095146;28;20456;-79
2021/08/04 05:56:13;;;;;;;7.30;6.10;;;;;;;;;;5095447;28;20433;-79
2021/08/04 05:58:40;;;;;;;8.80;5.70;;;;;;;;;;5094992;28;20977;-80
2021/08/04 06:01:07;;;;;;;6.17;5.60;;;;;;;;;;5095326;28;20446;-80
2021/08/04 06:03:37;;;;;;;6.67;6.00;;;;;;;;;;5095334;28;20457;-79
2021/08/04 06:06:04;;;;;;;7.90;7.17;;;;;;;;;;5094812;28;20453;-80
2021/08/04 06:08:32;;;;;;;9.20;6.10;;;;;;;;;;5095647;28;20449;-79
2021/08/04 06:10:59;;;;;;;7.00;5.67;;;;;;;;;;5094759;28;20479;-78
2021/08/04 06:13:26;;;;;;;9.63;5.97;;;;;;;;;;5094857;28;20472;-78
2021/08/04 06:15:54;;;;;;;7.67;5.73;;;;;;;;;;5094655;28;20445;-79
2021/08/04 06:18:21;;;;;;;7.03;5.93;;;;;;;;;;5094914;28;20476;-78
2021/08/04 06:20:50;;;;;;;5.57;5.17;;;;;;;;;;5094935;28;20444;-79
2021/08/04 06:23:17;;;;;;;5.80;5.30;;;;;;;;;;5099142;28;20489;-77
2021/08/04 06:25:44;;;;;;;6.20;5.70;;;;;;;;;;5095510;28;20537;-78
2021/08/04 06:28:11;;;;;;;6.70;4.93;;;;;;;;;;5094689;28;20433;-77
2021/08/04 06:30:38;;;;;;;5.50;5.07;;;;;;;;;;5094705;28;20442;-75
2021/08/04 06:33:06;;;;;;;5.40;4.93;;;;;;;;;;5094693;28;20533;-74
2021/08/04 06:35:33;;;;;;;6.37;4.87;;;;;;;;;;5094632;28;20471;-74
2021/08/04 06:38:01;;;;;;;8.10;5.00;;;;;;;;;;5094523;28;20440;-75
2021/08/04 06:40:29;;;;;;;5.20;4.70;;;;;;;;;;5094217;28;20446;-76
2021/08/04 06:42:56;;;;;;;7.33;4.40;;;;;;;;;;5094143;28;20441;-76
2021/08/04 06:45:23;;;;;;;5.80;4.60;;;;;;;;;;5094846;28;20464;-75
2021/08/04 06:47:50;;;;;;;5.03;4.63;;;;;;;;;;5094687;28;20438;-75
2021/08/04 06:50:17;;;;;;;4.63;4.23;;;;;;;;;;5094316;28;20445;-77
2021/08/04 06:52:45;;;;;;;5.03;4.63;;;;;;;;;;5094948;28;20448;-75
2021/08/04 06:55:14;;;;;;;5.73;3.60;;;;;;;;;;5094404;28;20539;-75
2021/08/04 06:57:41;;;;;;;4.77;4.23;;;;;;;;;;5094248;28;20445;-75
2021/08/04 07:00:09;;;;;;;4.70;4.20;;;;;;;;;;5093792;28;20480;-74
2021/08/04 07:02:36;;;;;;;12.63;4.60;;;;;;;;;;5094093;28;20470;-68
2021/08/04 07:05:03;;;;;;;4.80;4.30;;;;;;;;;;5094018;28;20443;-74
2021/08/04 07:07:30;;;;;;;8.80;3.97;;;;;;;;;;5093993;28;20869;-69
2021/08/04 07:09:57;;;;;;;4.60;4.20;;;;;;;;;;5093858;28;20441;-74
2021/08/04 07:12:26;;;;;;;5.30;3.40;;;;;;;;;;5093953;28;20438;-69
2021/08/04 07:14:53;;;;;;;4.80;3.90;;;;;;;;;;5093693;28;20496;-76
2021/08/04 07:17:20;;;;;;;4.77;4.10;;;;;;;;;;5092989;28;20448;-76
2021/08/04 07:19:48;;;;;;;3.83;3.50;;;;;;;;;;5093746;28;20478;-76
2021/08/04 07:22:15;;;;;;;2.97;2.70;;;;;;;;;;5093793;28;20445;-77
2021/08/04 07:24:42;;;;;;;4.00;3.70;;;;;;;;;;5093327;28;20560;-76
2021/08/04 07:27:09;;;;;;;5.97;3.80;;;;;;;;;;5093350;28;20433;-76
2021/08/04 07:29:38;;;;;;;3.40;3.20;;;;;;;;;;5093287;28;20454;-75
2021/08/04 07:32:06;;;;;;;4.73;3.73;;;;;;;;;;5093641;28;20496;-76
2021/08/04 07:34:33;;;;;;;4.30;3.90;;;;;;;;;;5093509;28;20442;-76
2021/08/04 07:37:00;;;;;;;4.77;3.57;;;;;;;;;;5093885;28;20450;-76
2021/08/04 07:39:27;;;;;;;4.63;4.23;;;;;;;;;;5093046;28;20478;-76
2021/08/04 07:41:54;;;;;;;8.67;5.33;;;;;;;;;;5093190;28;20446;-76
2021/08/04 07:44:21;;;;;;;4.93;4.07;;;;;;;;;;5093454;28;20450;-76
2021/08/04 07:46:50;;;;;;;4.23;3.70;;;;;;;;;;5093160;28;20442;-77
2021/08/04 07:49:17;;;;;;;6.23;3.73;;;;;;;;;;5093415;28;20467;-76
2021/08/04 07:51:44;;;;;;;5.43;4.27;;;;;;;;;;5093504;28;20441;-75
2021/08/04 07:54:11;;;;;;;5.57;3.93;;;;;;;;;;5093353;28;20543;-77
2021/08/04 07:56:45;;;;;;;3.43;3.13;;;;;;;;;;5093133;28;20436;-77
2021/08/04 07:59:12;;;;;;;4.47;4.07;;;;;;;;;;5093419;28;20476;-78
2021/08/04 08:01:39;;;;;;;4.80;4.30;;;;;;;;;;5092983;28;20536;-78
2021/08/04 08:04:08;;;;;;;4.20;3.87;;;;;;;;;;5093031;28;20450;-76
2021/08/04 08:06:35;;;;;;;4.90;4.40;;;;;;;;;;5093362;28;20433;-77
2021/08/04 08:09:02;;;;;;;6.00;5.50;;;;;;;;;;5093261;28;20437;-76
2021/08/04 08:11:29;;;;;;;4.77;4.37;;;;;;;;;;5093263;28;20468;-77
2021/08/04 08:13:57;;;;;;;4.43;3.83;;;;;;;;;;5093734;28;20438;-77
2021/08/04 08:16:24;;;;;;;8.23;7.43;;;;;;;;;;5093278;28;20433;-76
2021/08/04 08:18:51;;;;;;;6.93;4.93;;;;;;;;;;5092824;28;20469;-77
2021/08/04 08:21:23;;;;;;;5.07;4.67;;;;;;;;;;5092847;28;20920;-77
2021/08/04 08:23:50;;;;;;;6.10;3.67;;;;;;;;;;5092769;28;20470;-77
2021/08/04 08:26:17;;;;;;;4.60;4.07;;;;;;;;;;5092809;28;20531;-77
2021/08/04 08:28:44;;;;;;;5.93;4.17;;;;;;;;;;5093988;28;20460;-76
2021/08/04 08:31:12;;;;;;;7.07;5.20;;;;;;;;;;5097054;28;20495;-76
2021/08/04 08:33:39;;;;;;;4.30;3.90;;;;;;;;;;5097006;28;20528;-77
2021/08/04 08:36:06;;;;;;;6.80;4.30;;;;;;;;;;5097024;28;20882;-75
2021/08/04 08:38:34;;;;;;;6.23;3.60;;;;;;;;;;5096964;28;20805;-76
2021/08/04 08:41:02;;;;;;;7.73;3.57;;;;;;;;;;5096563;28;20437;-78
2021/08/04 08:43:29;;;;;;;5.97;3.93;;;;;;;;;;5096821;28;20521;-74
2021/08/04 08:45:56;;;;;;;5.93;3.07;;;;;;;;;;5096791;28;20435;-75
2021/08/04 08:48:24;;;;;;;10.60;7.10;;;;;;;;;;5096425;28;20446;-75
2021/08/04 08:50:51;;;;;;;4.80;3.20;;;;;;;;;;5096734;28;20445;-76
2021/08/04 08:53:21;;;;;;;4.77;3.63;;;;;;;;;;5097435;28;20454;-75
2021/08/04 08:55:49;;;;;;;7.57;4.53;;;;;;;;;;5096871;28;20441;-75
2021/08/04 08:58:17;;;;;;;5.33;4.10;;;;;;;;;;5101376;28;20540;-75
2021/08/04 09:00:44;;;;;;;4.90;4.17;;;;;;;;;;5107920;28;20484;-74
2021/08/04 09:03:11;;;;;;;4.30;3.30;;;;;;;;;;5116802;28;20532;-76
2021/08/04 09:05:49;;;;;;;3.33;3.13;;;;;;;;;;5116798;28;20797;-75
2021/08/04 09:08:26;;;;;;;4.10;3.70;;;;;;;;;;5116346;28;20452;-74
2021/08/04 09:10:55;;;;;;;4.47;3.53;;;;;;;;;;5116985;28;20447;-72
2021/08/04 09:13:31;;;;;;;4.60;4.13;;;;;;;;;;5116891;28;20800;-73
2021/08/04 09:16:01;;;;;;;3.70;3.30;;;;;;;;;;5117006;28;20432;-75
2021/08/04 09:18:38;;;;;;;5.23;3.47;;;;;;;;;;5116648;28;20433;-72
2021/08/04 09:21:06;;;;;;;5.40;4.90;;;;;;;;;;5116838;28;20472;-73
2021/08/04 09:23:33;;;;;;;4.13;3.73;;;;;;;;;;5115941;28;20983;-74
2021/08/04 09:26:06;;;;;;;4.40;4.00;;;;;;;;;;5116921;28;20440;-74
2021/08/04 09:28:52;;;;;;;3.80;3.50;;;;;;;;;;5104363;28;20456;-72
2021/08/04 09:31:20;;;;;;;4.23;3.83;;;;;;;;;;5115054;28;20431;-73
2021/08/04 09:33:48;;;;;;;3.30;3.10;;;;;;;;;;5115529;28;20441;-70
2021/08/04 09:36:26;;;;;;;7.00;3.90;;;;;;;;;;5115658;28;20798;-73
2021/08/04 09:39:01;;;;;;;5.90;3.70;;;;;;;;;;5113556;28;20467;-71
2021/08/04 09:41:30;;;;;;;4.20;3.80;;;;;;;;;;5115068;28;20437;-77
2021/08/04 09:44:04;;;;;;;5.53;4.03;;;;;;;;;;5115503;28;20447;-76
2021/08/04 09:46:31;;;;;;;4.47;3.47;;;;;;;;;;5115933;28;20512;-75
2021/08/04 09:49:10;;;;;;;8.53;3.87;;;;;;;;;;5115958;28;20445;-75
2021/08/04 09:51:37;;;;;;;4.53;4.23;;;;;;;;;;5116235;28;20433;-77
2021/08/04 09:54:08;;;;;;;4.63;3.30;;;;;;;;;;5115870;28;20534;-76
2021/08/04 09:56:48;;;;;;;5.73;4.27;;;;;;;;;;5115856;28;20531;-76
2021/08/04 09:59:15;;;;;;;6.17;3.70;;;;;;;;;;5115965;28;20426;-77
2021/08/04 10:01:42;;;;;;;3.53;3.30;;;;;;;;;;5115623;28;20444;-76
2021/08/04 10:04:10;;;;;;;3.87;3.50;;;;;;;;;;5115676;28;20441;-80
2021/08/04 10:06:38;;;;;;;13.53;7.63;;;;;;;;;;5115252;28;20514;-73
2021/08/04 10:09:06;;;;;;;3.87;3.57;;;;;;;;;;5115178;28;21055;-74
2021/08/04 10:11:34;;;;;;;9.93;5.87;;;;;;;;;;5115520;28;20451;-66
2021/08/04 10:14:02;;;;;;;4.30;3.90;;;;;;;;;;5115135;28;20533;-74
2021/08/04 10:16:31;;;;;;;3.77;3.47;;;;;;;;;;5115017;28;20441;-73
2021/08/04 10:18:58;;;;;;;4.77;4.27;;;;;;;;;;5115540;28;20447;-73
2021/08/04 10:21:25;;;;;;;3.77;3.40;;;;;;;;;;5115524;28;20503;-73
2021/08/04 10:23:53;;;;;;;7.73;4.50;;;;;;;;;;5115280;28;20480;-73
2021/08/04 10:26:21;;;;;;;5.37;3.47;;;;;;;;;;5115581;28;20545;-71
2021/08/04 10:28:52;;;;;;;8.30;3.40;;;;;;;;;;5115503;28;20438;-77
2021/08/04 10:31:21;;;;;;;5.57;3.27;;;;;;;;;;5115171;28;20438;-73
2021/08/04 10:33:48;;;;;;;3.73;3.43;;;;;;;;;;5115375;28;20441;-73
2021/08/04 10:36:16;;;;;;;6.40;3.37;;;;;;;;;;5115093;28;20444;-73
2021/08/04 10:38:45;;;;;;;3.50;3.20;;;;;;;;;;5114723;28;20464;-75
2021/08/04 10:41:13;;;;;;;7.03;3.20;;;;;;;;;;5115349;28;20481;-73
2021/08/04 10:43:43;;;;;;;4.83;3.23;;;;;;;;;;5114812;28;20438;-75
2021/08/04 10:46:29;;;;;;;6.13;3.10;;;;;;;;;;5114574;28;20445;-84
2021/08/04 10:48:57;;;;;;;4.57;3.00;;;;;;;;;;5114840;28;20964;-80
2021/08/04 10:51:26;;;;;;;3.40;3.10;;;;;;;;;;5117940;28;20448;-83
2021/08/04 10:54:16;;;;;;;3.40;3.10;;;;;;;;;;5119018;28;20450;-83
2021/08/04 10:57:02;;;;;;;4.60;3.10;;;;;;;;;;5120303;28;20484;-82
2021/08/04 10:59:30;;;;;;;3.70;3.40;;;;;;;;;;5115286;28;20441;-82
2021/08/04 11:02:18;;;;;;;3.83;3.43;;;;;;;;;;5116876;28;20446;-83
2021/08/04 11:04:57;;;;;;;2.90;2.70;;;;;;;;;;5114736;28;20488;-82
2021/08/04 11:07:24;;;;;;;3.77;3.13;;;;;;;;;;5116562;28;20520;-83
2021/08/04 11:09:58;;;;;;;3.23;2.90;;;;;;;;;;5118504;28;20458;-82
2021/08/04 11:12:41;;;;;;;3.43;3.13;;;;;;;;;;5115003;28;20507;-82
2021/08/04 11:15:20;;;;;;;3.70;3.00;;;;;;;;;;5114564;28;20434;-82
2021/08/04 11:18:06;;;;;;;4.97;3.40;;;;;;;;;;5115762;28;20430;-81
2021/08/04 11:20:36;;;;;;;4.30;3.40;;;;;;;;;;5114558;28;20466;-82
2021/08/04 11:23:05;;;;;;;3.80;3.50;;;;;;;;;;5113762;28;20997;-81
2021/08/04 11:25:42;;;;;;;5.37;4.87;;;;;;;;;;5114715;28;20462;-83
2021/08/04 11:28:16;;;;;;;6.80;3.10;;;;;;;;;;5114557;28;20414;-83
2021/08/04 11:30:46;;;;;;;6.30;3.20;;;;;;;;;;5114365;28;20466;-83
2021/08/04 11:33:30;;;;;;;3.63;3.10;;;;;;;;;;5114838;28;20443;-82
2021/08/04 11:36:12;;;;;;;4.60;3.23;;;;;;;;;;5115872;28;20445;-83
2021/08/04 11:38:42;;;;;;;3.33;2.70;;;;;;;;;;5112795;28;20553;-82
2021/08/04 11:41:13;;;;;;;4.63;3.80;;;;;;;;;;5116108;28;20462;-82
2021/08/04 11:43:41;;;;;;;4.87;3.87;;;;;;;;;;5115872;28;20435;-83
2021/08/04 11:46:08;;;;;;;4.10;3.10;;;;;;;;;;5115219;28;20531;-83
2021/08/04 11:48:48;;;;;;;3.67;3.20;;;;;;;;;;5115272;28;20439;-80
2021/08/04 11:51:16;;;;;;;5.23;2.73;;;;;;;;;;5114315;28;20427;-82
2021/08/04 11:53:45;;;;;;;5.17;3.60;;;;;;;;;;5113674;28;20439;-84
2021/08/04 11:56:12;;;;;;;3.60;2.80;;;;;;;;;;5115107;28;20438;-81
2021/08/04 11:58:39;;;;;;;3.80;3.40;;;;;;;;;;5113817;28;20917;-85
2021/08/04 12:01:16;;;;;;;3.10;2.80;;;;;;;;;;5114198;28;20570;-81
2021/08/04 12:03:43;;;;;;;2.83;2.57;;;;;;;;;;5114863;28;20443;-82
2021/08/04 12:06:14;;;;;;;2.80;2.60;;;;;;;;;;5118070;28;20435;-81
2021/08/04 12:08:41;;;;;;;2.87;2.63;;;;;;;;;;5117754;28;20443;-72
2021/08/04 12:11:10;;;;;;;2.83;2.63;;;;;;;;;;5117698;28;20452;-72
2021/08/04 12:13:37;;;;;;;2.67;2.47;;;;;;;;;;5118749;28;20438;-81
2021/08/04 12:16:14;;;;;;;2.70;2.27;;;;;;;;;;5119525;28;20442;-75
2021/08/04 12:18:48;;;;;;;3.77;3.47;;;;;;;;;;5117536;28;20425;-74
2021/08/04 12:21:18;;;;;;;3.70;2.87;;;;;;;;;;5117284;28;20462;-77
2021/08/04 12:23:45;;;;;;;2.87;2.57;;;;;;;;;;5117753;28;20466;-75
2021/08/04 12:26:13;;;;;;;2.90;2.60;;;;;;;;;;5117455;28;20928;-76
2021/08/04 12:28:40;;;;;;;2.80;2.50;;;;;;;;;;5117601;28;20476;-76
2021/08/04 12:31:13;;;;;;;4.30;2.77;;;;;;;;;;5114101;28;20534;-77
2021/08/04 12:33:56;;;;;;;2.77;2.57;;;;;;;;;;5106337;28;20932;-77
2021/08/04 12:36:34;;;;;;;3.00;2.77;;;;;;;;;;5098364;28;20528;-77
2021/08/04 12:39:03;;;;;;;3.40;3.10;;;;;;;;;;5117392;28;20427;-77
2021/08/04 12:41:32;;;;;;;3.47;3.17;;;;;;;;;;5117730;28;20569;-76
2021/08/04 12:43:59;;;;;;;2.77;2.57;;;;;;;;;;5116977;28;20954;-77
2021/08/04 12:46:27;;;;;;;3.53;3.10;;;;;;;;;;5116890;28;20965;-78
2021/08/04 12:48:54;;;;;;;5.60;3.23;;;;;;;;;;5116826;28;20447;-78
2021/08/04 12:51:22;;;;;;;4.00;2.50;;;;;;;;;;5117063;28;20443;-78
2021/08/04 12:53:56;;;;;;;3.07;2.23;;;;;;;;;;5116878;28;20503;-79
2021/08/04 12:56:30;;;;;;;4.23;2.50;;;;;;;;;;5116821;28;20434;-78
2021/08/04 12:59:00;;;;;;;2.93;2.63;;;;;;;;;;5117024;28;20513;-79
2021/08/04 13:01:45;;;;;;;7.50;3.00;;;;;;;;;;5116848;28;20478;-78
2021/08/04 13:04:16;;;;;;;7.70;2.70;;;;;;;;;;5117521;28;20438;-80
2021/08/04 13:06:50;;;;;;;3.07;2.83;;;;;;;;;;5117009;28;20431;-78
2021/08/04 13:09:18;;;;;;;3.90;3.47;;;;;;;;;;5116776;28;20441;-78
2021/08/04 13:11:45;;;;;;;2.50;2.30;;;;;;;;;;5116382;28;20447;-78
2021/08/04 13:14:14;;;;;;;3.23;3.03;;;;;;;;;;5116639;28;20529;-77
2021/08/04 13:16:42;;;;;;;6.47;4.67;;;;;;;;;;5115000;28;20449;-79
2021/08/04 13:19:19;;;;;;;3.33;2.77;;;;;;;;;;5116233;28;20441;-76
2021/08/04 13:21:58;;;;;;;3.73;3.43;;;;;;;;;;5116423;28;20575;-77
2021/08/04 13:24:29;;;;;;;3.23;2.87;;;;;;;;;;5116664;28;20463;-78
2021/08/04 13:26:56;;;;;;;3.70;3.33;;;;;;;;;;5116055;28;20451;-77
2021/08/04 13:29:32;;;;;;;5.00;4.47;;;;;;;;;;5116248;28;20445;-78
2021/08/04 13:32:00;;;;;;;4.10;2.30;;;;;;;;;;5116436;28;20445;-78
2021/08/04 13:34:27;;;;;;;2.40;2.20;;;;;;;;;;5115906;28;20446;-78
2021/08/04 13:36:54;;;;;;;2.63;2.43;;;;;;;;;;5116147;28;20441;-75
2021/08/04 13:39:23;;;;;;;3.90;2.70;;;;;;;;;;5116085;28;20539;-78
2021/08/04 13:41:50;;;;;;;2.20;2.00;;;;;;;;;;5116058;28;20484;-77
2021/08/04 13:44:17;;;;;;;2.43;2.20;;;;;;;;;;5116305;28;20437;-77
2021/08/04 13:46:46;;;;;;;2.50;2.30;;;;;;;;;;5115656;28;20446;-77
2021/08/04 13:49:13;;;;;;;2.63;2.40;;;;;;;;;;5116172;28;20433;-78
2021/08/04 13:51:40;;;;;;;4.03;2.47;;;;;;;;;;5115571;28;20451;-77
2021/08/04 13:54:08;;;;;;;2.30;2.20;;;;;;;;;;5116391;28;20455;-77
2021/08/04 13:56:35;;;;;;;3.67;3.03;;;;;;;;;;5115418;28;20450;-78
2021/08/04 13:59:02;;;;;;;2.47;2.27;;;;;;;;;;5115865;28;20434;-77
2021/08/04 14:01:29;;;;;;;2.40;2.20;;;;;;;;;;5115643;28;20475;-77
2021/08/04 14:03:58;;;;;;;2.60;2.40;;;;;;;;;;5115648;28;20436;-78
2021/08/04 14:06:26;;;;;;;6.03;2.80;;;;;;;;;;5115806;28;20436;-77
2021/08/04 14:08:53;;;;;;;3.00;2.63;;;;;;;;;;5115604;28;20441;-77
2021/08/04 14:11:20;;;;;;;5.17;2.83;;;;;;;;;;5115511;28;20450;-77
2021/08/04 14:13:48;;;;;;;3.53;2.97;;;;;;;;;;5115505;28;20442;-77
2021/08/04 14:16:15;;;;;;;2.80;2.60;;;;;;;;;;5115413;28;20487;-77
2021/08/04 14:18:48;;;;;;;2.83;2.20;;;;;;;;;;5115443;28;20874;-77
2021/08/04 14:21:17;;;;;;;2.53;2.40;;;;;;;;;;5115439;28;20462;-75
2021/08/04 14:23:44;;;;;;;5.23;3.87;;;;;;;;;;5115094;28;20532;-79
2021/08/04 14:26:11;;;;;;;5.17;4.20;;;;;;;;;;5115447;28;20538;-75
2021/08/04 14:28:38;;;;;;;4.50;3.40;;;;;;;;;;5115303;28;20445;-73
2021/08/04 14:31:05;;;;;;;3.00;2.80;;;;;;;;;;5115176;28;20442;-75
2021/08/04 14:33:33;;;;;;;6.40;3.20;;;;;;;;;;5113319;28;20443;-75
2021/08/04 14:36:00;;;;;;;3.40;3.10;;;;;;;;;;5094218;28;20440;-73
2021/08/04 14:38:29;;;;;;;7.90;3.23;;;;;;;;;;5094235;28;20444;-75
2021/08/04 14:40:56;;;;;;;3.73;3.30;;;;;;;;;;5109936;28;20490;-75
2021/08/04 14:43:23;;;;;;;3.20;3.00;;;;;;;;;;5114607;28;20452;-75
2021/08/04 14:45:50;;;;;;;3.30;2.97;;;;;;;;;;5115629;28;20531;-74
2021/08/04 14:48:18;;;;;;;2.97;2.67;;;;;;;;;;5114486;28;20953;-74
2021/08/04 14:50:45;;;;;;;3.17;2.97;;;;;;;;;;5114796;28;20443;-74
2021/08/04 14:53:12;;;;;;;8.73;2.80;;;;;;;;;;5114719;28;20499;-76
2021/08/04 14:55:41;;;;;;;3.13;2.87;;;;;;;;;;5114961;28;20439;-74
2021/08/04 14:58:08;;;;;;;6.43;3.33;;;;;;;;;;5114612;28;20442;-75
2021/08/04 15:00:35;;;;;;;3.20;3.00;;;;;;;;;;5114626;28;20805;-75
2021/08/04 15:03:02;;;;;;;3.50;3.20;;;;;;;;;;5114181;28;20481;-75
2021/08/04 15:05:29;;;;;;;4.17;3.57;;;;;;;;;;5095599;28;20459;-75
2021/08/04 15:07:56;;;;;;;5.43;3.50;;;;;;;;;;5094266;28;20439;-74
2021/08/04 15:10:24;;;;;;;3.00;2.80;;;;;;;;;;5093789;28;20486;-76
2021/08/04 15:12:52;;;;;;;3.00;2.80;;;;;;;;;;5093739;28;20475;-75
2021/08/04 15:15:20;;;;;;;3.70;3.40;;;;;;;;;;5093594;28;20930;-76